sensor_id;sensor_type;location;lat;lon;timestamp;P1;durP1;ratioP1;P2;durP2;ratioP2
37905;SDS011;23739;51.448;6.674;2024-01-30T00:01:30;10.27;;;7.63;;
37905;SDS011;23739;51.448;6.674;2024-01-30T00:03:56;14.40;;;7.93;;
37905;SDS011;23739;51.448;6.674;2024-01-30T00:06:22;14.73;;;8.93;;
37905;SDS011;23739;51.448;6.674;2024-01-30T00:08:49;12.20;;;8.20;;
37905;SDS011;23739;51.448;6.674;2024-01-30T00:11:15;12.05;;;8.60;;
37905;SDS011;23739;51.448;6.674;2024-01-30T00:13:42;11.30;;;8.27;;
37905;SDS011;23739;51.448;6.674;2024-01-30T00:16:08;16.02;;;8.07;;
37905;SDS011;23739;51.448;6.674;2024-01-30T00:18:34;17.63;;;8.50;;
37905;SDS011;23739;51.448;6.674;2024-01-30T00:21:00;11.50;;;8.27;;
37905;SDS011;23739;51.448;6.674;2024-01-30T00:23:26;14.85;;;8.35;;
37905;SDS011;23739;51.448;6.674;2024-01-30T00:25:52;13.93;;;8.90;;
37905;SDS011;23739;51.448;6.674;2024-01-30T00:28:18;16.08;;;9.48;;
37905;SDS011;23739;51.448;6.674;2024-01-30T00:30:44;12.75;;;9.43;;
37905;SDS011;23739;51.448;6.674;2024-01-30T00:33:10;17.10;;;9.10;;
37905;SDS011;23739;51.448;6.674;2024-01-30T00:35:36;11.98;;;8.93;;
37905;SDS011;23739;51.448;6.674;2024-01-30T00:38:02;14.73;;;10.23;;
37905;SDS011;23739;51.448;6.674;2024-01-30T00:40:28;14.43;;;9.20;;
37905;SDS011;23739;51.448;6.674;2024-01-30T00:42:54;15.55;;;9.60;;
37905;SDS011;23739;51.448;6.674;2024-01-30T00:45:20;18.42;;;10.20;;
37905;SDS011;23739;51.448;6.674;2024-01-30T00:47:47;15.18;;;9.52;;
37905;SDS011;23739;51.448;6.674;2024-01-30T00:50:13;15.77;;;11.07;;
37905;SDS011;23739;51.448;6.674;2024-01-30T00:52:39;19.70;;;11.05;;
37905;SDS011;23739;51.448;6.674;2024-01-30T00:55:06;20.92;;;11.07;;
37905;SDS011;23739;51.448;6.674;2024-01-30T00:57:32;19.23;;;11.20;;
37905;SDS011;23739;51.448;6.674;2024-01-30T00:59:58;15.85;;;10.63;;
37905;SDS011;23739;51.448;6.674;2024-01-30T01:02:24;15.55;;;9.93;;
37905;SDS011;23739;51.448;6.674;2024-01-30T01:04:50;16.38;;;10.13;;
37905;SDS011;23739;51.448;6.674;2024-01-30T01:07:16;14.23;;;9.05;;
37905;SDS011;23739;51.448;6.674;2024-01-30T01:09:43;11.93;;;8.98;;
37905;SDS011;23739;51.448;6.674;2024-01-30T01:12:09;12.68;;;9.90;;
37905;SDS011;23739;51.448;6.674;2024-01-30T01:14:35;12.80;;;9.00;;
37905;SDS011;23739;51.448;6.674;2024-01-30T01:17:01;18.80;;;9.82;;
37905;SDS011;23739;51.448;6.674;2024-01-30T01:19:27;12.38;;;8.93;;
37905;SDS011;23739;51.448;6.674;2024-01-30T01:21:54;13.30;;;8.50;;
37905;SDS011;23739;51.448;6.674;2024-01-30T01:24:20;12.63;;;8.52;;
37905;SDS011;23739;51.448;6.674;2024-01-30T01:26:46;19.00;;;9.20;;
37905;SDS011;23739;51.448;6.674;2024-01-30T01:29:11;12.90;;;9.43;;
37905;SDS011;23739;51.448;6.674;2024-01-30T01:31:38;16.40;;;9.38;;
37905;SDS011;23739;51.448;6.674;2024-01-30T01:34:08;13.90;;;8.57;;
37905;SDS011;23739;51.448;6.674;2024-01-30T01:36:34;19.77;;;9.65;;
37905;SDS011;23739;51.448;6.674;2024-01-30T01:39:00;15.55;;;9.18;;
37905;SDS011;23739;51.448;6.674;2024-01-30T01:41:29;16.70;;;10.00;;
37905;SDS011;23739;51.448;6.674;2024-01-30T01:43:56;12.95;;;8.70;;
37905;SDS011;23739;51.448;6.674;2024-01-30T01:46:22;13.68;;;9.85;;
37905;SDS011;23739;51.448;6.674;2024-01-30T01:48:48;15.02;;;9.93;;
37905;SDS011;23739;51.448;6.674;2024-01-30T01:51:15;15.00;;;10.15;;
37905;SDS011;23739;51.448;6.674;2024-01-30T01:53:41;14.55;;;9.45;;
37905;SDS011;23739;51.448;6.674;2024-01-30T01:56:07;16.30;;;9.98;;
37905;SDS011;23739;51.448;6.674;2024-01-30T01:58:34;15.13;;;9.52;;
37905;SDS011;23739;51.448;6.674;2024-01-30T02:01:01;15.13;;;9.90;;
37905;SDS011;23739;51.448;6.674;2024-01-30T02:03:27;13.63;;;9.18;;
37905;SDS011;23739;51.448;6.674;2024-01-30T02:05:53;13.02;;;9.48;;
37905;SDS011;23739;51.448;6.674;2024-01-30T02:08:20;19.50;;;11.30;;
37905;SDS011;23739;51.448;6.674;2024-01-30T02:10:46;17.05;;;10.20;;
37905;SDS011;23739;51.448;6.674;2024-01-30T02:13:12;15.32;;;9.45;;
37905;SDS011;23739;51.448;6.674;2024-01-30T02:15:38;17.70;;;10.00;;
37905;SDS011;23739;51.448;6.674;2024-01-30T02:18:04;15.88;;;9.90;;
37905;SDS011;23739;51.448;6.674;2024-01-30T02:20:30;15.40;;;9.45;;
37905;SDS011;23739;51.448;6.674;2024-01-30T02:22:58;13.95;;;10.63;;
37905;SDS011;23739;51.448;6.674;2024-01-30T02:25:39;17.92;;;10.63;;
37905;SDS011;23739;51.448;6.674;2024-01-30T02:28:11;16.55;;;10.63;;
37905;SDS011;23739;51.448;6.674;2024-01-30T02:30:42;17.20;;;10.98;;
37905;SDS011;23739;51.448;6.674;2024-01-30T02:33:08;15.00;;;10.90;;
37905;SDS011;23739;51.448;6.674;2024-01-30T02:35:34;16.88;;;10.30;;
37905;SDS011;23739;51.448;6.674;2024-01-30T02:38:00;16.38;;;11.18;;
37905;SDS011;23739;51.448;6.674;2024-01-30T02:40:27;18.75;;;11.30;;
37905;SDS011;23739;51.448;6.674;2024-01-30T02:42:53;17.20;;;11.55;;
37905;SDS011;23739;51.448;6.674;2024-01-30T02:45:19;19.60;;;11.57;;
37905;SDS011;23739;51.448;6.674;2024-01-30T02:47:45;16.55;;;11.32;;
37905;SDS011;23739;51.448;6.674;2024-01-30T02:50:11;22.77;;;11.90;;
37905;SDS011;23739;51.448;6.674;2024-01-30T02:52:38;19.95;;;12.55;;
37905;SDS011;23739;51.448;6.674;2024-01-30T02:55:04;20.08;;;12.35;;
37905;SDS011;23739;51.448;6.674;2024-01-30T02:57:30;20.40;;;12.30;;
37905;SDS011;23739;51.448;6.674;2024-01-30T02:59:56;18.90;;;12.85;;
37905;SDS011;23739;51.448;6.674;2024-01-30T03:02:22;21.95;;;12.55;;
37905;SDS011;23739;51.448;6.674;2024-01-30T03:04:48;16.92;;;11.32;;
37905;SDS011;23739;51.448;6.674;2024-01-30T03:07:14;23.10;;;12.70;;
37905;SDS011;23739;51.448;6.674;2024-01-30T03:09:43;17.00;;;10.93;;
37905;SDS011;23739;51.448;6.674;2024-01-30T03:12:09;18.77;;;10.88;;
37905;SDS011;23739;51.448;6.674;2024-01-30T03:14:35;17.17;;;10.98;;
37905;SDS011;23739;51.448;6.674;2024-01-30T03:17:01;19.60;;;10.95;;
37905;SDS011;23739;51.448;6.674;2024-01-30T03:19:28;15.35;;;10.50;;
37905;SDS011;23739;51.448;6.674;2024-01-30T03:21:53;16.30;;;11.57;;
37905;SDS011;23739;51.448;6.674;2024-01-30T03:24:19;19.83;;;10.85;;
37905;SDS011;23739;51.448;6.674;2024-01-30T03:26:45;14.55;;;10.32;;
37905;SDS011;23739;51.448;6.674;2024-01-30T03:29:12;15.32;;;10.20;;
37905;SDS011;23739;51.448;6.674;2024-01-30T03:31:38;13.27;;;10.60;;
37905;SDS011;23739;51.448;6.674;2024-01-30T03:34:04;13.27;;;9.73;;
37905;SDS011;23739;51.448;6.674;2024-01-30T03:36:30;16.35;;;9.25;;
37905;SDS011;23739;51.448;6.674;2024-01-30T03:38:59;13.40;;;10.00;;
37905;SDS011;23739;51.448;6.674;2024-01-30T03:41:25;13.32;;;8.77;;
37905;SDS011;23739;51.448;6.674;2024-01-30T03:43:51;12.23;;;8.63;;
37905;SDS011;23739;51.448;6.674;2024-01-30T03:46:18;11.50;;;8.93;;
37905;SDS011;23739;51.448;6.674;2024-01-30T03:48:44;12.90;;;9.25;;
37905;SDS011;23739;51.448;6.674;2024-01-30T03:51:11;14.73;;;9.45;;
37905;SDS011;23739;51.448;6.674;2024-01-30T03:53:39;15.13;;;10.00;;
37905;SDS011;23739;51.448;6.674;2024-01-30T03:56:06;15.18;;;9.25;;
37905;SDS011;23739;51.448;6.674;2024-01-30T03:58:32;11.35;;;8.35;;
37905;SDS011;23739;51.448;6.674;2024-01-30T04:00:58;12.30;;;9.00;;
37905;SDS011;23739;51.448;6.674;2024-01-30T04:03:24;15.88;;;8.68;;
37905;SDS011;23739;51.448;6.674;2024-01-30T04:05:53;15.65;;;8.60;;
37905;SDS011;23739;51.448;6.674;2024-01-30T04:08:20;12.85;;;8.45;;
37905;SDS011;23739;51.448;6.674;2024-01-30T04:10:46;15.85;;;9.02;;
37905;SDS011;23739;51.448;6.674;2024-01-30T04:13:13;12.65;;;8.98;;
37905;SDS011;23739;51.448;6.674;2024-01-30T04:15:39;15.95;;;8.82;;
37905;SDS011;23739;51.448;6.674;2024-01-30T04:18:05;15.57;;;9.57;;
37905;SDS011;23739;51.448;6.674;2024-01-30T04:20:31;17.77;;;9.55;;
37905;SDS011;23739;51.448;6.674;2024-01-30T04:22:57;13.93;;;8.77;;
37905;SDS011;23739;51.448;6.674;2024-01-30T04:25:23;13.65;;;8.57;;
37905;SDS011;23739;51.448;6.674;2024-01-30T04:27:49;12.88;;;9.18;;
37905;SDS011;23739;51.448;6.674;2024-01-30T04:30:15;14.25;;;8.95;;
37905;SDS011;23739;51.448;6.674;2024-01-30T04:32:42;14.35;;;9.18;;
37905;SDS011;23739;51.448;6.674;2024-01-30T04:35:08;11.23;;;7.97;;
37905;SDS011;23739;51.448;6.674;2024-01-30T04:37:34;12.43;;;8.95;;
37905;SDS011;23739;51.448;6.674;2024-01-30T04:40:00;14.70;;;8.38;;
37905;SDS011;23739;51.448;6.674;2024-01-30T04:42:28;10.82;;;8.02;;
37905;SDS011;23739;51.448;6.674;2024-01-30T04:44:53;11.73;;;8.38;;
37905;SDS011;23739;51.448;6.674;2024-01-30T04:47:19;12.73;;;8.50;;
37905;SDS011;23739;51.448;6.674;2024-01-30T04:49:46;12.30;;;7.65;;
37905;SDS011;23739;51.448;6.674;2024-01-30T04:52:12;13.52;;;8.00;;
37905;SDS011;23739;51.448;6.674;2024-01-30T04:54:38;13.02;;;8.27;;
37905;SDS011;23739;51.448;6.674;2024-01-30T04:57:04;10.73;;;8.25;;
37905;SDS011;23739;51.448;6.674;2024-01-30T04:59:35;14.50;;;7.65;;
37905;SDS011;23739;51.448;6.674;2024-01-30T05:02:01;15.63;;;8.48;;
37905;SDS011;23739;51.448;6.674;2024-01-30T05:04:27;12.13;;;8.73;;
37905;SDS011;23739;51.448;6.674;2024-01-30T05:06:53;11.43;;;7.60;;
37905;SDS011;23739;51.448;6.674;2024-01-30T05:09:20;14.65;;;8.35;;
37905;SDS011;23739;51.448;6.674;2024-01-30T05:11:46;10.75;;;8.15;;
37905;SDS011;23739;51.448;6.674;2024-01-30T05:14:12;12.63;;;8.10;;
37905;SDS011;23739;51.448;6.674;2024-01-30T05:16:40;12.10;;;8.82;;
37905;SDS011;23739;51.448;6.674;2024-01-30T05:19:06;15.13;;;7.88;;
37905;SDS011;23739;51.448;6.674;2024-01-30T05:21:32;15.52;;;8.85;;
37905;SDS011;23739;51.448;6.674;2024-01-30T05:23:59;11.43;;;7.20;;
37905;SDS011;23739;51.448;6.674;2024-01-30T05:26:25;14.27;;;8.45;;
37905;SDS011;23739;51.448;6.674;2024-01-30T05:28:51;12.05;;;8.18;;
37905;SDS011;23739;51.448;6.674;2024-01-30T05:31:17;11.88;;;7.80;;
37905;SDS011;23739;51.448;6.674;2024-01-30T05:33:44;17.70;;;8.68;;
37905;SDS011;23739;51.448;6.674;2024-01-30T05:36:13;12.35;;;7.75;;
37905;SDS011;23739;51.448;6.674;2024-01-30T05:38:39;11.25;;;8.25;;
37905;SDS011;23739;51.448;6.674;2024-01-30T05:41:05;14.38;;;8.85;;
37905;SDS011;23739;51.448;6.674;2024-01-30T05:43:31;9.73;;;8.00;;
37905;SDS011;23739;51.448;6.674;2024-01-30T05:45:57;10.90;;;8.60;;
37905;SDS011;23739;51.448;6.674;2024-01-30T05:48:23;12.13;;;8.45;;
37905;SDS011;23739;51.448;6.674;2024-01-30T05:50:49;11.30;;;8.60;;
37905;SDS011;23739;51.448;6.674;2024-01-30T05:53:15;12.43;;;7.68;;
37905;SDS011;23739;51.448;6.674;2024-01-30T05:55:41;13.82;;;8.95;;
37905;SDS011;23739;51.448;6.674;2024-01-30T05:58:07;12.90;;;8.70;;
37905;SDS011;23739;51.448;6.674;2024-01-30T06:00:33;11.25;;;8.50;;
37905;SDS011;23739;51.448;6.674;2024-01-30T06:02:59;11.20;;;8.65;;
37905;SDS011;23739;51.448;6.674;2024-01-30T06:05:25;15.15;;;9.52;;
37905;SDS011;23739;51.448;6.674;2024-01-30T06:07:52;12.75;;;8.45;;
37905;SDS011;23739;51.448;6.674;2024-01-30T06:10:18;11.05;;;8.80;;
37905;SDS011;23739;51.448;6.674;2024-01-30T06:12:44;15.23;;;9.00;;
37905;SDS011;23739;51.448;6.674;2024-01-30T06:15:10;14.43;;;8.60;;
37905;SDS011;23739;51.448;6.674;2024-01-30T06:17:38;12.32;;;7.90;;
37905;SDS011;23739;51.448;6.674;2024-01-30T06:20:04;14.82;;;9.27;;
37905;SDS011;23739;51.448;6.674;2024-01-30T06:22:30;12.88;;;8.95;;
37905;SDS011;23739;51.448;6.674;2024-01-30T06:24:56;15.15;;;9.95;;
37905;SDS011;23739;51.448;6.674;2024-01-30T06:27:22;13.90;;;9.20;;
37905;SDS011;23739;51.448;6.674;2024-01-30T06:29:48;13.57;;;9.48;;
37905;SDS011;23739;51.448;6.674;2024-01-30T06:32:14;16.15;;;9.93;;
37905;SDS011;23739;51.448;6.674;2024-01-30T06:34:41;19.33;;;10.52;;
37905;SDS011;23739;51.448;6.674;2024-01-30T06:37:09;14.57;;;9.75;;
37905;SDS011;23739;51.448;6.674;2024-01-30T06:39:35;14.00;;;9.20;;
37905;SDS011;23739;51.448;6.674;2024-01-30T06:42:01;14.45;;;9.40;;
37905;SDS011;23739;51.448;6.674;2024-01-30T06:44:27;16.38;;;10.02;;
37905;SDS011;23739;51.448;6.674;2024-01-30T06:46:53;14.00;;;9.00;;
37905;SDS011;23739;51.448;6.674;2024-01-30T06:49:19;14.88;;;10.00;;
37905;SDS011;23739;51.448;6.674;2024-01-30T06:51:47;13.35;;;9.35;;
37905;SDS011;23739;51.448;6.674;2024-01-30T06:54:13;14.73;;;9.95;;
37905;SDS011;23739;51.448;6.674;2024-01-30T06:56:39;15.57;;;9.15;;
37905;SDS011;23739;51.448;6.674;2024-01-30T06:59:05;14.40;;;9.23;;
37905;SDS011;23739;51.448;6.674;2024-01-30T07:01:31;14.10;;;8.55;;
37905;SDS011;23739;51.448;6.674;2024-01-30T07:03:59;16.17;;;9.23;;
37905;SDS011;23739;51.448;6.674;2024-01-30T07:06:25;13.70;;;7.80;;
37905;SDS011;23739;51.448;6.674;2024-01-30T07:08:51;12.52;;;7.70;;
37905;SDS011;23739;51.448;6.674;2024-01-30T07:11:21;13.38;;;8.90;;
37905;SDS011;23739;51.448;6.674;2024-01-30T07:13:47;12.25;;;8.57;;
37905;SDS011;23739;51.448;6.674;2024-01-30T07:16:14;13.32;;;8.70;;
37905;SDS011;23739;51.448;6.674;2024-01-30T07:18:40;14.05;;;8.60;;
37905;SDS011;23739;51.448;6.674;2024-01-30T07:21:06;17.33;;;8.85;;
37905;SDS011;23739;51.448;6.674;2024-01-30T07:23:32;13.77;;;8.60;;
37905;SDS011;23739;51.448;6.674;2024-01-30T07:25:59;12.43;;;8.85;;
37905;SDS011;23739;51.448;6.674;2024-01-30T07:28:25;15.00;;;8.55;;
37905;SDS011;23739;51.448;6.674;2024-01-30T07:30:52;13.40;;;8.68;;
37905;SDS011;23739;51.448;6.674;2024-01-30T07:33:18;12.68;;;8.55;;
37905;SDS011;23739;51.448;6.674;2024-01-30T07:35:45;15.45;;;9.02;;
37905;SDS011;23739;51.448;6.674;2024-01-30T07:38:11;13.77;;;8.35;;
37905;SDS011;23739;51.448;6.674;2024-01-30T07:40:37;10.43;;;7.75;;
37905;SDS011;23739;51.448;6.674;2024-01-30T07:43:03;12.68;;;9.10;;
37905;SDS011;23739;51.448;6.674;2024-01-30T07:45:29;14.57;;;8.52;;
37905;SDS011;23739;51.448;6.674;2024-01-30T07:47:58;13.75;;;8.02;;
37905;SDS011;23739;51.448;6.674;2024-01-30T07:50:27;20.83;;;8.45;;
37905;SDS011;23739;51.448;6.674;2024-01-30T07:52:53;13.20;;;8.00;;
37905;SDS011;23739;51.448;6.674;2024-01-30T07:55:23;11.77;;;7.93;;
37905;SDS011;23739;51.448;6.674;2024-01-30T07:57:52;9.00;;;7.82;;
37905;SDS011;23739;51.448;6.674;2024-01-30T08:00:19;16.02;;;8.60;;
37905;SDS011;23739;51.448;6.674;2024-01-30T08:02:54;10.05;;;7.38;;
37905;SDS011;23739;51.448;6.674;2024-01-30T08:05:20;11.73;;;7.30;;
37905;SDS011;23739;51.448;6.674;2024-01-30T08:07:48;15.98;;;8.55;;
37905;SDS011;23739;51.448;6.674;2024-01-30T08:10:14;14.07;;;8.27;;
37905;SDS011;23739;51.448;6.674;2024-01-30T08:12:40;12.30;;;8.45;;
37905;SDS011;23739;51.448;6.674;2024-01-30T08:15:06;13.13;;;8.20;;
37905;SDS011;23739;51.448;6.674;2024-01-30T08:17:33;14.65;;;9.02;;
37905;SDS011;23739;51.448;6.674;2024-01-30T08:19:59;12.05;;;8.43;;
37905;SDS011;23739;51.448;6.674;2024-01-30T08:22:25;11.70;;;8.27;;
37905;SDS011;23739;51.448;6.674;2024-01-30T08:24:51;12.00;;;8.35;;
37905;SDS011;23739;51.448;6.674;2024-01-30T08:27:17;14.38;;;8.20;;
37905;SDS011;23739;51.448;6.674;2024-01-30T08:29:43;10.50;;;7.22;;
37905;SDS011;23739;51.448;6.674;2024-01-30T08:32:09;11.98;;;8.65;;
37905;SDS011;23739;51.448;6.674;2024-01-30T08:34:36;14.55;;;8.13;;
37905;SDS011;23739;51.448;6.674;2024-01-30T08:37:02;18.65;;;9.20;;
37905;SDS011;23739;51.448;6.674;2024-01-30T08:39:28;14.05;;;8.90;;
37905;SDS011;23739;51.448;6.674;2024-01-30T08:41:54;11.55;;;8.93;;
37905;SDS011;23739;51.448;6.674;2024-01-30T08:44:20;12.10;;;8.50;;
37905;SDS011;23739;51.448;6.674;2024-01-30T08:46:46;10.27;;;8.00;;
37905;SDS011;23739;51.448;6.674;2024-01-30T08:49:16;13.43;;;8.80;;
37905;SDS011;23739;51.448;6.674;2024-01-30T08:51:42;16.00;;;8.98;;
37905;SDS011;23739;51.448;6.674;2024-01-30T08:54:09;11.35;;;7.43;;
37905;SDS011;23739;51.448;6.674;2024-01-30T08:56:35;14.15;;;7.53;;
37905;SDS011;23739;51.448;6.674;2024-01-30T08:59:01;12.45;;;8.85;;
37905;SDS011;23739;51.448;6.674;2024-01-30T09:01:27;12.48;;;8.50;;
37905;SDS011;23739;51.448;6.674;2024-01-30T09:03:53;11.73;;;8.30;;
37905;SDS011;23739;51.448;6.674;2024-01-30T09:06:19;14.18;;;8.10;;
37905;SDS011;23739;51.448;6.674;2024-01-30T09:08:45;11.15;;;8.15;;
37905;SDS011;23739;51.448;6.674;2024-01-30T09:11:11;11.20;;;8.52;;
37905;SDS011;23739;51.448;6.674;2024-01-30T09:13:37;13.23;;;8.45;;
37905;SDS011;23739;51.448;6.674;2024-01-30T09:16:04;11.57;;;8.27;;
37905;SDS011;23739;51.448;6.674;2024-01-30T09:18:30;12.05;;;9.13;;
37905;SDS011;23739;51.448;6.674;2024-01-30T09:20:56;14.02;;;9.25;;
37905;SDS011;23739;51.448;6.674;2024-01-30T09:23:22;11.70;;;8.30;;
37905;SDS011;23739;51.448;6.674;2024-01-30T09:25:48;11.98;;;8.25;;
37905;SDS011;23739;51.448;6.674;2024-01-30T09:28:15;16.83;;;8.13;;
37905;SDS011;23739;51.448;6.674;2024-01-30T09:30:42;13.48;;;9.15;;
37905;SDS011;23739;51.448;6.674;2024-01-30T09:33:08;13.43;;;8.57;;
37905;SDS011;23739;51.448;6.674;2024-01-30T09:35:34;13.45;;;9.07;;
37905;SDS011;23739;51.448;6.674;2024-01-30T09:38:00;14.20;;;9.05;;
37905;SDS011;23739;51.448;6.674;2024-01-30T09:40:26;15.50;;;8.77;;
37905;SDS011;23739;51.448;6.674;2024-01-30T09:42:52;12.43;;;8.40;;
37905;SDS011;23739;51.448;6.674;2024-01-30T09:45:20;15.02;;;9.25;;
37905;SDS011;23739;51.448;6.674;2024-01-30T09:47:46;15.07;;;9.57;;
37905;SDS011;23739;51.448;6.674;2024-01-30T09:50:13;10.70;;;9.35;;
37905;SDS011;23739;51.448;6.674;2024-01-30T09:52:39;11.20;;;8.35;;
37905;SDS011;23739;51.448;6.674;2024-01-30T09:55:06;12.02;;;8.75;;
37905;SDS011;23739;51.448;6.674;2024-01-30T09:57:32;15.00;;;9.55;;
37905;SDS011;23739;51.448;6.674;2024-01-30T09:59:58;13.02;;;8.02;;
37905;SDS011;23739;51.448;6.674;2024-01-30T10:02:24;14.57;;;8.43;;
37905;SDS011;23739;51.448;6.674;2024-01-30T10:04:51;13.70;;;8.93;;
37905;SDS011;23739;51.448;6.674;2024-01-30T10:07:17;15.18;;;8.77;;
37905;SDS011;23739;51.448;6.674;2024-01-30T10:09:44;12.00;;;8.88;;
37905;SDS011;23739;51.448;6.674;2024-01-30T10:12:10;13.70;;;9.77;;
37905;SDS011;23739;51.448;6.674;2024-01-30T10:14:39;11.13;;;8.95;;
37905;SDS011;23739;51.448;6.674;2024-01-30T10:17:07;15.82;;;9.05;;
37905;SDS011;23739;51.448;6.674;2024-01-30T10:19:33;13.93;;;9.40;;
37905;SDS011;23739;51.448;6.674;2024-01-30T10:22:00;15.80;;;9.70;;
37905;SDS011;23739;51.448;6.674;2024-01-30T10:24:26;12.60;;;9.40;;
37905;SDS011;23739;51.448;6.674;2024-01-30T10:26:54;13.65;;;9.30;;
37905;SDS011;23739;51.448;6.674;2024-01-30T10:29:20;19.70;;;9.52;;
37905;SDS011;23739;51.448;6.674;2024-01-30T10:31:57;12.80;;;10.02;;
37905;SDS011;23739;51.448;6.674;2024-01-30T10:34:23;13.20;;;9.63;;
37905;SDS011;23739;51.448;6.674;2024-01-30T10:36:49;15.45;;;9.68;;
37905;SDS011;23739;51.448;6.674;2024-01-30T10:39:16;16.98;;;10.52;;
37905;SDS011;23739;51.448;6.674;2024-01-30T10:41:43;17.52;;;9.63;;
37905;SDS011;23739;51.448;6.674;2024-01-30T10:44:10;16.73;;;10.38;;
37905;SDS011;23739;51.448;6.674;2024-01-30T10:46:40;21.80;;;10.38;;
37905;SDS011;23739;51.448;6.674;2024-01-30T10:49:08;15.65;;;10.18;;
37905;SDS011;23739;51.448;6.674;2024-01-30T10:51:34;15.25;;;10.25;;
37905;SDS011;23739;51.448;6.674;2024-01-30T10:54:02;14.45;;;8.50;;
37905;SDS011;23739;51.448;6.674;2024-01-30T10:56:29;13.48;;;8.27;;
37905;SDS011;23739;51.448;6.674;2024-01-30T10:58:55;14.80;;;7.80;;
37905;SDS011;23739;51.448;6.674;2024-01-30T11:01:21;12.95;;;8.50;;
37905;SDS011;23739;51.448;6.674;2024-01-30T11:04:06;15.13;;;8.90;;
37905;SDS011;23739;51.448;6.674;2024-01-30T11:06:33;18.90;;;8.95;;
37905;SDS011;23739;51.448;6.674;2024-01-30T11:09:09;17.95;;;7.97;;
37905;SDS011;23739;51.448;6.674;2024-01-30T11:11:56;12.63;;;7.30;;
37905;SDS011;23739;51.448;6.674;2024-01-30T11:14:26;11.82;;;7.40;;
37905;SDS011;23739;51.448;6.674;2024-01-30T11:16:52;11.55;;;6.95;;
37905;SDS011;23739;51.448;6.674;2024-01-30T11:19:25;14.38;;;7.55;;
37905;SDS011;23739;51.448;6.674;2024-01-30T11:21:55;11.20;;;7.50;;
37905;SDS011;23739;51.448;6.674;2024-01-30T11:24:24;16.33;;;7.63;;
37905;SDS011;23739;51.448;6.674;2024-01-30T11:26:55;12.15;;;7.18;;
37905;SDS011;23739;51.448;6.674;2024-01-30T11:29:27;12.10;;;7.97;;
37905;SDS011;23739;51.448;6.674;2024-01-30T11:31:57;14.35;;;7.53;;
37905;SDS011;23739;51.448;6.674;2024-01-30T11:34:24;12.40;;;7.50;;
37905;SDS011;23739;51.448;6.674;2024-01-30T11:36:55;10.98;;;8.00;;
37905;SDS011;23739;51.448;6.674;2024-01-30T11:39:25;12.50;;;7.68;;
37905;SDS011;23739;51.448;6.674;2024-01-30T11:41:51;15.00;;;7.65;;
37905;SDS011;23739;51.448;6.674;2024-01-30T11:44:18;10.23;;;7.32;;
37905;SDS011;23739;51.448;6.674;2024-01-30T11:46:48;12.13;;;7.30;;
37905;SDS011;23739;51.448;6.674;2024-01-30T11:49:15;16.55;;;7.97;;
37905;SDS011;23739;51.448;6.674;2024-01-30T11:51:47;10.38;;;7.07;;
37905;SDS011;23739;51.448;6.674;2024-01-30T11:54:17;12.63;;;7.72;;
37905;SDS011;23739;51.448;6.674;2024-01-30T11:56:43;12.02;;;7.93;;
37905;SDS011;23739;51.448;6.674;2024-01-30T11:59:09;10.50;;;7.43;;
37905;SDS011;23739;51.448;6.674;2024-01-30T12:01:35;12.45;;;6.68;;
37905;SDS011;23739;51.448;6.674;2024-01-30T12:04:02;12.38;;;7.35;;
37905;SDS011;23739;51.448;6.674;2024-01-30T12:06:28;11.93;;;8.25;;
37905;SDS011;23739;51.448;6.674;2024-01-30T12:08:56;14.00;;;6.97;;
37905;SDS011;23739;51.448;6.674;2024-01-30T12:11:23;14.73;;;7.45;;
37905;SDS011;23739;51.448;6.674;2024-01-30T12:13:49;16.40;;;8.18;;
37905;SDS011;23739;51.448;6.674;2024-01-30T12:16:15;12.18;;;7.75;;
37905;SDS011;23739;51.448;6.674;2024-01-30T12:18:41;17.20;;;8.43;;
37905;SDS011;23739;51.448;6.674;2024-01-30T12:21:07;11.75;;;7.10;;
37905;SDS011;23739;51.448;6.674;2024-01-30T12:23:34;11.73;;;7.53;;
37905;SDS011;23739;51.448;6.674;2024-01-30T12:26:00;16.67;;;8.27;;
37905;SDS011;23739;51.448;6.674;2024-01-30T12:28:29;10.20;;;6.85;;
37905;SDS011;23739;51.448;6.674;2024-01-30T12:31:01;14.85;;;7.32;;
37905;SDS011;23739;51.448;6.674;2024-01-30T12:33:28;17.10;;;7.75;;
37905;SDS011;23739;51.448;6.674;2024-01-30T12:35:55;14.23;;;7.68;;
37905;SDS011;23739;51.448;6.674;2024-01-30T12:38:22;11.30;;;6.65;;
37905;SDS011;23739;51.448;6.674;2024-01-30T12:40:49;17.75;;;7.43;;
37905;SDS011;23739;51.448;6.674;2024-01-30T12:43:15;10.95;;;7.32;;
37905;SDS011;23739;51.448;6.674;2024-01-30T12:45:41;13.00;;;7.20;;
37905;SDS011;23739;51.448;6.674;2024-01-30T12:48:08;9.55;;;7.13;;
37905;SDS011;23739;51.448;6.674;2024-01-30T12:50:34;13.07;;;7.60;;
37905;SDS011;23739;51.448;6.674;2024-01-30T12:53:00;13.45;;;7.68;;
37905;SDS011;23739;51.448;6.674;2024-01-30T12:55:26;13.40;;;7.15;;
37905;SDS011;23739;51.448;6.674;2024-01-30T12:57:54;10.63;;;7.05;;
37905;SDS011;23739;51.448;6.674;2024-01-30T13:00:21;12.27;;;7.75;;
37905;SDS011;23739;51.448;6.674;2024-01-30T13:02:47;12.95;;;7.13;;
37905;SDS011;23739;51.448;6.674;2024-01-30T13:05:13;13.00;;;7.28;;
37905;SDS011;23739;51.448;6.674;2024-01-30T13:07:40;19.85;;;8.10;;
37905;SDS011;23739;51.448;6.674;2024-01-30T13:10:06;13.48;;;7.68;;
37905;SDS011;23739;51.448;6.674;2024-01-30T13:12:32;15.32;;;7.20;;
37905;SDS011;23739;51.448;6.674;2024-01-30T13:15:01;10.95;;;7.10;;
37905;SDS011;23739;51.448;6.674;2024-01-30T13:17:31;13.07;;;7.28;;
37905;SDS011;23739;51.448;6.674;2024-01-30T13:19:57;12.88;;;6.70;;
37905;SDS011;23739;51.448;6.674;2024-01-30T13:22:23;13.43;;;6.70;;
37905;SDS011;23739;51.448;6.674;2024-01-30T13:24:50;14.50;;;6.75;;
37905;SDS011;23739;51.448;6.674;2024-01-30T13:27:16;9.60;;;5.90;;
37905;SDS011;23739;51.448;6.674;2024-01-30T13:29:42;15.07;;;6.60;;
37905;SDS011;23739;51.448;6.674;2024-01-30T13:32:09;14.18;;;7.22;;
37905;SDS011;23739;51.448;6.674;2024-01-30T13:34:36;13.13;;;6.63;;
37905;SDS011;23739;51.448;6.674;2024-01-30T13:37:02;13.07;;;6.28;;
37905;SDS011;23739;51.448;6.674;2024-01-30T13:39:28;10.82;;;6.32;;
37905;SDS011;23739;51.448;6.674;2024-01-30T13:41:54;12.30;;;6.53;;
37905;SDS011;23739;51.448;6.674;2024-01-30T13:44:20;8.68;;;6.07;;
37905;SDS011;23739;51.448;6.674;2024-01-30T13:46:46;14.75;;;7.05;;
37905;SDS011;23739;51.448;6.674;2024-01-30T13:49:12;7.75;;;6.03;;
37905;SDS011;23739;51.448;6.674;2024-01-30T13:51:38;10.07;;;5.97;;
37905;SDS011;23739;51.448;6.674;2024-01-30T13:54:04;10.88;;;7.35;;
37905;SDS011;23739;51.448;6.674;2024-01-30T13:56:30;12.95;;;6.30;;
37905;SDS011;23739;51.448;6.674;2024-01-30T13:58:56;14.48;;;7.07;;
37905;SDS011;23739;51.448;6.674;2024-01-30T14:01:23;13.68;;;8.85;;
37905;SDS011;23739;51.448;6.674;2024-01-30T14:03:49;15.68;;;8.00;;
37905;SDS011;23739;51.448;6.674;2024-01-30T14:06:16;19.50;;;10.23;;
37905;SDS011;23739;51.448;6.674;2024-01-30T14:08:42;13.02;;;8.13;;
37905;SDS011;23739;51.448;6.674;2024-01-30T14:11:09;9.80;;;6.63;;
37905;SDS011;23739;51.448;6.674;2024-01-30T14:13:35;12.82;;;6.15;;
37905;SDS011;23739;51.448;6.674;2024-01-30T14:16:01;11.70;;;6.20;;
37905;SDS011;23739;51.448;6.674;2024-01-30T14:18:27;9.52;;;6.03;;
37905;SDS011;23739;51.448;6.674;2024-01-30T14:20:53;8.73;;;5.28;;
37905;SDS011;23739;51.448;6.674;2024-01-30T14:23:19;8.65;;;5.75;;
37905;SDS011;23739;51.448;6.674;2024-01-30T14:25:46;14.05;;;6.25;;
37905;SDS011;23739;51.448;6.674;2024-01-30T14:28:12;7.55;;;5.50;;
37905;SDS011;23739;51.448;6.674;2024-01-30T14:30:38;8.27;;;5.47;;